Time;durP1;ratioP1;P1;durP2;ratioP2;P2;SDS_P1;SDS_P2;PMS_P1;PMS_P2;Temp;Humidity;BMP_temperature;BMP_pressure;BME280_temperature;BME280_humidity;BME280_pressure;Samples;Min_cycle;Max_cycle;Signal;HPM_P1;HPM_P2
2021/08/05 00:02:23;;;;;;;8.02;5.70;;;24.50;64.70;;;;;;5058276;28;20032;-33
2021/08/05 00:04:49;;;;;;;8.60;5.43;;;24.50;65.00;;;;;;5058378;28;20037;-40
2021/08/05 00:07:15;;;;;;;6.75;5.30;;;24.40;65.00;;;;;;5058033;28;20371;-34
2021/08/05 00:09:43;;;;;;;6.70;5.22;;;24.40;64.40;;;;;;5057999;28;20037;-33
2021/08/05 00:12:10;;;;;;;7.90;5.80;;;24.30;64.60;;;;;;5058255;28;20028;-33
2021/08/05 00:14:38;;;;;;;6.80;5.65;;;24.30;65.40;;;;;;5057936;28;20329;-33
2021/08/05 00:17:04;;;;;;;7.13;5.13;;;24.30;64.80;;;;;;5057656;28;20036;-41
2021/08/05 00:19:29;;;;;;;8.68;5.10;;;24.30;64.10;;;;;;5057802;28;20029;-41
2021/08/05 00:21:55;;;;;;;9.73;4.70;;;24.20;64.00;;;;;;5057792;28;20187;-33
2021/08/05 00:24:21;;;;;;;5.88;4.50;;;24.20;63.90;;;;;;5057677;28;20290;-33
2021/08/05 00:26:46;;;;;;;8.45;4.22;;;24.20;63.90;;;;;;5058041;28;20028;-40
2021/08/05 00:29:12;;;;;;;5.70;4.47;;;24.20;62.90;;;;;;5057723;28;20036;-41
2021/08/05 00:31:38;;;;;;;6.43;4.28;;;24.20;62.40;;;;;;5057985;28;20068;-34
2021/08/05 00:34:03;;;;;;;5.95;4.65;;;24.30;62.20;;;;;;5057873;28;20021;-34
2021/08/05 00:36:29;;;;;;;4.97;4.13;;;24.20;61.70;;;;;;5057692;28;20044;-34
2021/08/05 00:38:55;;;;;;;5.13;4.35;;;24.30;61.30;;;;;;5057591;28;20100;-33
2021/08/05 00:41:20;;;;;;;4.20;3.80;;;24.30;61.30;;;;;;5057720;28;20111;-33
2021/08/05 00:43:46;;;;;;;4.63;3.80;;;24.30;61.20;;;;;;5057470;28;20352;-34
2021/08/05 00:46:12;;;;;;;5.38;3.83;;;24.30;60.30;;;;;;5057167;28;20033;-33
2021/08/05 00:48:37;;;;;;;7.15;4.25;;;24.30;59.80;;;;;;5057548;28;20040;-41
2021/08/05 00:51:03;;;;;;;7.88;4.30;;;24.30;59.90;;;;;;5057661;28;20088;-41
2021/08/05 00:53:29;;;;;;;4.60;3.60;;;24.30;59.50;;;;;;5057444;28;20048;-41
2021/08/05 00:55:55;;;;;;;5.03;3.35;;;24.40;58.90;;;;;;5056460;28;20332;-33
2021/08/05 00:58:21;;;;;;;5.10;3.63;;;24.40;59.10;;;;;;5057699;28;20024;-33
2021/08/05 01:00:58;;;;;;;6.95;3.78;;;24.40;58.30;;;;;;5057029;28;20033;-34
2021/08/05 01:03:28;;;;;;;4.43;3.72;;;24.50;57.90;;;;;;5056839;28;20028;-33
2021/08/05 01:06:21;;;;;;;3.90;3.47;;;24.50;58.80;;;;;;5057405;28;20028;-33
2021/08/05 01:08:57;;;;;;;4.45;3.70;;;24.50;58.70;;;;;;5057350;28;20384;-35
2021/08/05 01:11:31;;;;;;;4.03;3.50;;;24.50;59.30;;;;;;5057089;28;20079;-41
2021/08/05 01:14:02;;;;;;;6.95;4.18;;;24.50;58.40;;;;;;5057241;28;20294;-39
2021/08/05 01:16:29;;;;;;;7.25;4.47;;;24.50;59.10;;;;;;5056372;28;20049;-33
2021/08/05 01:19:08;;;;;;;5.57;4.25;;;24.40;59.20;;;;;;5057179;28;20040;-40
2021/08/05 01:21:50;;;;;;;5.32;4.13;;;24.40;59.60;;;;;;5056950;28;20291;-33
2021/08/05 01:24:20;;;;;;;9.90;4.38;;;24.40;59.80;;;;;;5056534;28;20074;-41
2021/08/05 01:26:46;;;;;;;5.93;4.55;;;24.40;60.10;;;;;;5056962;28;20333;-34
2021/08/05 01:29:12;;;;;;;5.72;4.82;;;24.40;60.30;;;;;;5056869;28;20036;-34
2021/08/05 01:31:38;;;;;;;7.63;4.60;;;24.30;60.80;;;;;;5056981;28;20355;-41
2021/08/05 01:34:04;;;;;;;10.60;5.40;;;24.30;61.20;;;;;;5056906;28;20036;-33
2021/08/05 01:36:31;;;;;;;9.93;5.57;;;24.30;61.60;;;;;;5056707;28;20091;-34
2021/08/05 01:38:58;;;;;;;8.85;5.95;;;24.30;62.10;;;;;;5056835;28;20332;-40
2021/08/05 01:41:26;;;;;;;6.53;5.85;;;24.20;62.50;;;;;;5056264;28;20025;-34
2021/08/05 01:43:52;;;;;;;6.95;5.50;;;24.20;63.00;;;;;;5056175;28;20032;-41
2021/08/05 01:46:19;;;;;;;8.00;6.32;;;24.10;63.40;;;;;;5056604;28;20116;-33
2021/08/05 01:48:47;;;;;;;8.80;6.60;;;24.10;63.80;;;;;;5056661;28;20037;-40
2021/08/05 01:51:14;;;;;;;9.73;6.30;;;24.10;64.20;;;;;;5056014;28;20033;-40
2021/08/05 01:53:40;;;;;;;7.97;5.97;;;24.00;64.40;;;;;;5056290;28;20029;-34
2021/08/05 01:56:06;;;;;;;9.30;6.15;;;24.00;64.80;;;;;;5056441;28;20037;-41
2021/08/05 01:58:31;;;;;;;7.85;6.20;;;23.90;65.10;;;;;;5056324;28;20116;-33
2021/08/05 02:00:57;;;;;;;7.72;6.30;;;23.90;65.50;;;;;;5056413;28;20308;-33
2021/08/05 02:03:23;;;;;;;7.82;6.93;;;23.80;65.80;;;;;;5055962;28;20483;-41
2021/08/05 02:06:13;;;;;;;7.60;6.28;;;23.80;66.00;;;;;;5056198;28;20029;-40
2021/08/05 02:09:22;;;;;;;11.80;7.20;;;23.80;66.10;;;;;;5055966;28;20121;-41
2021/08/05 02:11:51;;;;;;;8.60;6.45;;;23.80;66.40;;;;;;5055703;28;20075;-34
2021/08/05 02:14:20;;;;;;;8.27;6.63;;;23.70;66.90;;;;;;5055819;28;20029;-41
2021/08/05 02:16:49;;;;;;;8.10;6.33;;;23.70;67.00;;;;;;5055536;28;20056;-33
2021/08/05 02:19:16;;;;;;;10.00;7.45;;;23.70;67.20;;;;;;5055939;28;20115;-40
2021/08/05 02:21:44;;;;;;;8.63;7.18;;;23.60;67.50;;;;;;5056113;28;20025;-40
2021/08/05 02:24:10;;;;;;;7.93;6.63;;;23.60;67.80;;;;;;5055774;28;20409;-41
2021/08/05 02:26:39;;;;;;;9.23;6.63;;;23.60;67.90;;;;;;5056055;28;20044;-33
2021/08/05 02:29:05;;;;;;;9.43;6.75;;;23.70;68.00;;;;;;5055507;28;20079;-41
2021/08/05 02:31:33;;;;;;;8.57;6.93;;;23.60;68.10;;;;;;5056085;28;20033;-40
2021/08/05 02:34:00;;;;;;;17.65;6.97;;;23.60;68.50;;;;;;5055824;28;20029;-34
2021/08/05 02:36:26;;;;;;;9.30;6.95;;;23.60;68.50;;;;;;5055556;28;20044;-33
2021/08/05 02:38:52;;;;;;;10.80;6.70;;;23.60;68.60;;;;;;5055957;28;20194;-41
2021/08/05 02:41:18;;;;;;;10.75;7.30;;;23.50;68.70;;;;;;5055826;28;20040;-40
2021/08/05 02:43:44;;;;;;;8.88;6.50;;;23.50;68.90;;;;;;5055567;28;20017;-34
2021/08/05 02:46:11;;;;;;;12.52;7.63;;;23.50;68.90;;;;;;5055881;28;20047;-41
2021/08/05 02:48:37;;;;;;;13.60;7.10;;;23.50;69.10;;;;;;5055565;28;20112;-40
2021/08/05 02:51:03;;;;;;;11.80;6.72;;;23.50;68.90;;;;;;5055834;28;20122;-33
2021/08/05 02:53:30;;;;;;;10.48;7.88;;;23.50;69.00;;;;;;5055425;28;20032;-40
2021/08/05 02:55:56;;;;;;;11.07;6.95;;;23.50;69.20;;;;;;5055855;28;20044;-41
2021/08/05 02:58:22;;;;;;;10.48;7.00;;;23.50;69.40;;;;;;5055430;28;20484;-39
2021/08/05 03:00:48;;;;;;;14.52;7.72;;;23.40;69.30;;;;;;5055764;28;20482;-40
2021/08/05 03:03:20;;;;;;;8.45;7.28;;;23.40;69.30;;;;;;5055250;28;20025;-33
2021/08/05 03:05:45;;;;;;;11.10;7.65;;;23.40;69.50;;;;;;5055360;28;20037;-33
2021/08/05 03:08:11;;;;;;;10.45;6.97;;;23.40;69.50;;;;;;5055276;28;20087;-33
2021/08/05 03:10:36;;;;;;;7.72;6.65;;;23.40;69.50;;;;;;5055740;28;20103;-33
2021/08/05 03:13:02;;;;;;;11.13;7.65;;;23.50;69.50;;;;;;5055236;28;20064;-33
2021/08/05 03:15:29;;;;;;;12.43;8.05;;;23.40;69.40;;;;;;5054857;28;20055;-34
2021/08/05 03:17:55;;;;;;;9.93;6.95;;;23.40;69.20;;;;;;5055339;28;20041;-41
2021/08/05 03:20:20;;;;;;;10.88;7.55;;;23.50;69.20;;;;;;5058403;28;20017;-41
2021/08/05 03:22:46;;;;;;;10.00;7.82;;;23.50;69.00;;;;;;5058679;28;20040;-41
2021/08/05 03:25:12;;;;;;;11.00;7.40;;;23.50;69.00;;;;;;5057688;28;20033;-41
2021/08/05 03:27:39;;;;;;;9.63;7.45;;;23.40;68.80;;;;;;5058832;28;20041;-34
2021/08/05 03:30:06;;;;;;;9.02;7.28;;;23.40;68.80;;;;;;5058782;28;20428;-33
2021/08/05 03:32:32;;;;;;;10.15;7.63;;;23.40;68.80;;;;;;5058825;28;20040;-41
2021/08/05 03:34:57;;;;;;;9.25;7.55;;;23.40;68.70;;;;;;5058889;28;20313;-33
2021/08/05 03:37:23;;;;;;;11.65;8.68;;;23.40;68.50;;;;;;5058394;28;20037;-34
2021/08/05 03:39:49;;;;;;;10.55;7.78;;;23.40;68.00;;;;;;5058900;28;20025;-33
2021/08/05 03:42:14;;;;;;;14.20;8.93;;;23.40;67.90;;;;;;5058309;28;20087;-40
2021/08/05 03:44:40;;;;;;;11.05;7.65;;;23.30;67.60;;;;;;5058364;28;20029;-33
2021/08/05 03:47:06;;;;;;;9.52;8.40;;;23.30;67.50;;;;;;5058440;28;20091;-41
2021/08/05 03:49:31;;;;;;;13.27;9.15;;;23.30;67.20;;;;;;5058325;28;20024;-41
2021/08/05 03:51:57;;;;;;;9.80;8.13;;;23.30;66.60;;;;;;5058205;28;20075;-40
2021/08/05 03:54:23;;;;;;;9.73;8.30;;;23.20;66.30;;;;;;5058654;28;20029;-41
2021/08/05 03:56:48;;;;;;;13.35;8.20;;;23.10;66.20;;;;;;5058454;28;20060;-35
2021/08/05 03:59:14;;;;;;;11.35;8.60;;;23.10;66.10;;;;;;5058121;28;20375;-41
2021/08/05 04:01:40;;;;;;;9.80;7.95;;;23.10;65.80;;;;;;5057885;28;20104;-34
2021/08/05 04:04:05;;;;;;;11.50;8.65;;;23.10;65.90;;;;;;5058093;28;20025;-40
2021/08/05 04:06:31;;;;;;;11.98;8.57;;;23.00;65.50;;;;;;5058286;28;20317;-33
2021/08/05 04:08:57;;;;;;;11.00;8.52;;;23.00;65.20;;;;;;5058333;28;20060;-34
2021/08/05 04:11:23;;;;;;;12.25;8.93;;;22.90;65.00;;;;;;5058010;28;20249;-40
2021/08/05 04:13:49;;;;;;;11.93;8.00;;;22.90;64.90;;;;;;5058104;28;20028;-34
2021/08/05 04:16:14;;;;;;;12.88;8.35;;;22.80;64.90;;;;;;5057295;28;20378;-33
2021/08/05 04:18:40;;;;;;;11.10;7.93;;;22.80;65.00;;;;;;5057695;28;20025;-40
2021/08/05 04:21:06;;;;;;;13.45;7.88;;;22.80;65.10;;;;;;5058070;28;20025;-33
2021/08/05 04:23:31;;;;;;;13.57;8.02;;;22.70;65.10;;;;;;5057449;28;20187;-40
2021/08/05 04:25:57;;;;;;;13.32;8.65;;;22.70;65.40;;;;;;5058043;28;20037;-41
2021/08/05 04:28:23;;;;;;;11.35;8.07;;;22.70;65.40;;;;;;5057661;28;20420;-34
2021/08/05 04:30:50;;;;;;;14.20;9.48;;;22.70;65.60;;;;;;5057615;28;20024;-33
2021/08/05 04:33:16;;;;;;;12.77;8.65;;;22.60;65.80;;;;;;5057400;28;20111;-33
2021/08/05 04:35:42;;;;;;;14.05;8.05;;;22.70;65.90;;;;;;5057597;28;20338;-41
2021/08/05 04:38:10;;;;;;;12.57;8.00;;;22.70;66.00;;;;;;5057167;28;20026;-41
2021/08/05 04:40:36;;;;;;;15.70;9.68;;;22.70;66.10;;;;;;5057672;28;20044;-41
2021/08/05 04:43:02;;;;;;;11.95;8.85;;;22.70;66.20;;;;;;5056867;28;20470;-33
2021/08/05 04:45:28;;;;;;;12.82;8.50;;;22.70;66.00;;;;;;5057316;28;20028;-41
2021/08/05 04:47:57;;;;;;;11.85;8.70;;;22.70;66.10;;;;;;5057001;28;20051;-34
2021/08/05 04:50:26;;;;;;;18.53;9.13;;;22.80;66.00;;;;;;5056775;28;20044;-41
2021/08/05 04:52:52;;;;;;;11.18;7.55;;;22.80;66.00;;;;;;5057104;28;20025;-41
2021/08/05 04:55:17;;;;;;;11.20;8.73;;;22.90;66.30;;;;;;5056975;28;20488;-34
2021/08/05 04:57:58;;;;;;;10.63;8.02;;;22.90;65.80;;;;;;5056810;28;20045;-35
2021/08/05 05:00:27;;;;;;;;;;;23.00;65.60;;;;;;5057490;28;20025;-41
2021/08/05 05:02:54;;;;;;;11.38;8.15;;;23.10;65.50;;;;;;5056661;28;19917;-41
2021/08/05 05:05:21;;;;;;;11.93;7.88;;;23.10;65.20;;;;;;5057249;28;20029;-42
2021/08/05 05:07:46;;;;;;;12.85;8.30;;;23.10;65.20;;;;;;5056947;28;20333;-42
2021/08/05 05:10:13;;;;;;;10.27;8.18;;;23.10;65.10;;;;;;5056896;28;20029;-41
2021/08/05 05:12:39;;;;;;;12.13;8.35;;;23.20;65.00;;;;;;5056564;28;20041;-42
2021/08/05 05:15:06;;;;;;;9.73;7.97;;;23.30;64.90;;;;;;5056372;28;20119;-34
2021/08/05 05:17:32;;;;;;;21.65;7.93;;;23.30;64.80;;;;;;5056510;28;20464;-34
2021/08/05 05:19:58;;;;;;;15.07;8.15;;;23.30;65.00;;;;;;5056560;28;20067;-35
2021/08/05 05:22:23;;;;;;;10.32;8.20;;;23.40;65.00;;;;;;5056426;28;20116;-34
2021/08/05 05:24:49;;;;;;;12.20;8.68;;;23.50;64.80;;;;;;5056385;28;20021;-34
2021/08/05 05:27:15;;;;;;;12.35;10.20;;;23.50;64.70;;;;;;5056199;28;20035;-35
2021/08/05 05:29:40;;;;;;;13.13;8.88;;;23.50;64.90;;;;;;5056200;28;20028;-42
2021/08/05 05:32:07;;;;;;;12.90;9.10;;;23.50;64.90;;;;;;5056083;28;20065;-34
2021/08/05 05:34:33;;;;;;;12.38;8.52;;;23.50;64.80;;;;;;5055872;28;20375;-42
2021/08/05 05:36:59;;;;;;;12.35;8.60;;;23.50;65.00;;;;;;5055643;28;20079;-36
2021/08/05 05:39:25;;;;;;;11.27;7.88;;;23.60;65.20;;;;;;5055930;28;20028;-34
2021/08/05 05:41:50;;;;;;;10.55;8.63;;;23.70;64.90;;;;;;5055364;28;20021;-42
2021/08/05 05:44:16;;;;;;;17.83;8.65;;;23.70;64.50;;;;;;5055988;28;20059;-35
2021/08/05 05:46:42;;;;;;;13.13;8.80;;;23.80;64.40;;;;;;5056201;28;20105;-34
2021/08/05 05:49:07;;;;;;;13.57;9.07;;;23.90;64.30;;;;;;5055771;28;20043;-34
2021/08/05 05:51:33;;;;;;;17.30;8.93;;;23.90;64.00;;;;;;5055644;28;20325;-42
2021/08/05 05:53:59;;;;;;;14.95;9.35;;;23.90;63.90;;;;;;5055711;28;20054;-34
2021/08/05 05:56:25;;;;;;;13.40;9.30;;;24.00;64.30;;;;;;5056020;28;20037;-42
2021/08/05 05:58:50;;;;;;;19.48;9.27;;;24.10;63.80;;;;;;5055792;28;20021;-42
2021/08/05 06:01:16;;;;;;;13.95;8.70;;;24.10;63.80;;;;;;5056010;28;20134;-34
2021/08/05 06:03:41;;;;;;;11.38;8.88;;;24.10;63.70;;;;;;5055509;28;20044;-42
2021/08/05 06:06:07;;;;;;;11.75;9.38;;;24.20;63.70;;;;;;5055849;28;20070;-34
2021/08/05 06:08:33;;;;;;;15.85;9.70;;;24.20;63.70;;;;;;5055891;28;20108;-42
2021/08/05 06:10:58;;;;;;;12.25;8.88;;;24.30;63.60;;;;;;5055829;28;20029;-42
2021/08/05 06:13:24;;;;;;;11.55;9.48;;;24.30;63.50;;;;;;5055290;28;20029;-40
2021/08/05 06:15:50;;;;;;;14.88;9.30;;;24.30;63.40;;;;;;5055329;28;20049;-34
2021/08/05 06:18:16;;;;;;;14.20;9.00;;;24.40;63.60;;;;;;5051685;28;20482;-34
2021/08/05 06:20:42;;;;;;;16.38;10.63;;;24.40;63.60;;;;;;5055260;28;20033;-34
2021/08/05 06:23:08;;;;;;;15.32;10.38;;;24.40;63.60;;;;;;5055311;28;20025;-42
2021/08/05 06:25:36;;;;;;;15.25;9.57;;;24.40;63.30;;;;;;5055648;28;20037;-41
2021/08/05 06:28:03;;;;;;;20.92;11.38;;;24.50;63.30;;;;;;5055199;28;20060;-44
2021/08/05 06:30:29;;;;;;;14.57;9.75;;;24.60;63.10;;;;;;5055479;28;20033;-34
2021/08/05 06:32:55;;;;;;;12.77;9.38;;;24.60;62.90;;;;;;5055217;28;20325;-42
2021/08/05 06:35:21;;;;;;;13.40;9.50;;;24.70;62.70;;;;;;5055365;28;20025;-34
2021/08/05 06:37:47;;;;;;;14.30;9.50;;;24.80;62.50;;;;;;5054824;28;20058;-42
2021/08/05 06:40:14;;;;;;;15.13;9.88;;;24.80;62.20;;;;;;5055240;28;20033;-43
2021/08/05 06:42:40;;;;;;;17.27;9.68;;;24.80;62.00;;;;;;5054805;28;20025;-35
2021/08/05 06:45:09;;;;;;;16.13;9.93;;;24.90;62.00;;;;;;5055210;28;20029;-34
2021/08/05 06:47:38;;;;;;;13.52;9.32;;;25.00;61.50;;;;;;5055174;28;20463;-42
2021/08/05 06:50:05;;;;;;;12.77;9.13;;;25.00;61.60;;;;;;5055327;28;20029;-34
2021/08/05 06:52:30;;;;;;;15.95;9.38;;;25.10;61.40;;;;;;5055095;28;20032;-42
2021/08/05 06:54:56;;;;;;;13.75;9.50;;;25.10;61.50;;;;;;5059217;28;20036;-42
2021/08/05 06:57:22;;;;;;;15.10;9.63;;;25.20;61.50;;;;;;5058712;28;20536;-34
2021/08/05 06:59:47;;;;;;;17.55;10.35;;;25.20;61.40;;;;;;5059182;28;20033;-43
2021/08/05 07:02:13;;;;;;;11.85;9.38;;;25.30;61.30;;;;;;5058626;28;20397;-43
2021/08/05 07:04:39;;;;;;;12.25;9.20;;;25.40;61.30;;;;;;5059170;28;20032;-35
2021/08/05 07:07:04;;;;;;;19.02;9.95;;;25.50;60.90;;;;;;5058814;28;20298;-35
2021/08/05 07:09:30;;;;;;;15.48;9.23;;;25.60;60.60;;;;;;5058921;28;20308;-34
2021/08/05 07:11:56;;;;;;;13.98;9.50;;;25.70;60.70;;;;;;5058894;28;20468;-35
2021/08/05 07:14:21;;;;;;;15.02;9.50;;;25.80;60.40;;;;;;5058429;28;20029;-34
2021/08/05 07:16:47;;;;;;;12.40;9.30;;;25.90;60.10;;;;;;5057972;28;20053;-36
2021/08/05 07:19:13;;;;;;;14.23;8.95;;;26.00;60.10;;;;;;5058938;28;20397;-43
2021/08/05 07:21:38;;;;;;;11.45;9.43;;;26.10;59.70;;;;;;5059189;28;20035;-35
2021/08/05 07:24:04;;;;;;;13.30;7.70;;;26.20;59.60;;;;;;5058421;28;20064;-36
2021/08/05 07:26:30;;;;;;;10.23;8.43;;;26.30;58.80;;;;;;5058646;28;20040;-35
2021/08/05 07:28:56;;;;;;;12.70;8.68;;;26.40;58.30;;;;;;5058689;28;20025;-34
2021/08/05 07:31:22;;;;;;;11.73;8.55;;;26.50;58.50;;;;;;5058582;28;20051;-35
2021/08/05 07:33:49;;;;;;;10.63;8.00;;;26.60;58.40;;;;;;5058422;28;20076;-43
2021/08/05 07:36:17;;;;;;;12.23;8.60;;;26.70;58.00;;;;;;5058350;28;20037;-44
2021/08/05 07:38:42;;;;;;;15.93;7.95;;;26.80;57.80;;;;;;5058368;28;20155;-43
2021/08/05 07:41:08;;;;;;;11.25;7.63;;;26.80;57.40;;;;;;5058151;28;20403;-35
2021/08/05 07:43:34;;;;;;;12.32;7.22;;;27.00;57.00;;;;;;5058214;28;20135;-35
2021/08/05 07:46:00;;;;;;;16.35;7.78;;;27.10;57.10;;;;;;5058444;28;20179;-35
2021/08/05 07:48:26;;;;;;;15.30;7.07;;;27.20;57.10;;;;;;5058242;28;20040;-35
2021/08/05 07:50:51;;;;;;;8.80;6.30;;;27.30;56.20;;;;;;5058080;28;20032;-34
2021/08/05 07:53:17;;;;;;;12.32;6.75;;;27.40;54.80;;;;;;5057923;28;20040;-35
2021/08/05 07:55:43;;;;;;;8.15;6.30;;;27.40;54.50;;;;;;5058395;28;20085;-34
2021/08/05 07:58:09;;;;;;;9.75;6.82;;;27.50;54.00;;;;;;5058004;28;20033;-35
2021/08/05 08:00:35;;;;;;;11.43;6.45;;;27.60;53.80;;;;;;5057392;28;20100;-43
2021/08/05 08:03:02;;;;;;;8.00;5.43;;;27.60;53.40;;;;;;5057880;28;20032;-35
2021/08/05 08:05:28;;;;;;;11.80;5.85;;;27.70;52.70;;;;;;5057446;28;20035;-34
2021/08/05 08:07:53;;;;;;;11.02;6.15;;;27.80;52.70;;;;;;5058244;28;20033;-35
2021/08/05 08:10:19;;;;;;;11.88;6.20;;;27.90;52.70;;;;;;5058085;28;20029;-35
2021/08/05 08:12:45;;;;;;;11.50;6.82;;;27.90;52.90;;;;;;5057919;28;20037;-44
2021/08/05 08:15:11;;;;;;;11.88;6.50;;;28.00;53.40;;;;;;5057421;28;20052;-35
2021/08/05 08:17:37;;;;;;;9.48;6.50;;;28.10;53.10;;;;;;5057348;28;20037;-46
2021/08/05 08:20:05;;;;;;;10.38;6.28;;;28.20;53.20;;;;;;5057635;28;20029;-43
2021/08/05 08:22:31;;;;;;;19.65;7.70;;;28.30;52.70;;;;;;5057627;28;20325;-44
2021/08/05 08:24:56;;;;;;;9.63;6.28;;;28.30;53.00;;;;;;5057755;28;20037;-44
2021/08/05 08:27:22;;;;;;;11.45;5.75;;;28.40;52.60;;;;;;5057374;28;20381;-42
2021/08/05 08:29:48;;;;;;;9.70;5.82;;;28.40;52.60;;;;;;5057617;28;20039;-35
2021/08/05 08:32:13;;;;;;;8.30;5.95;;;28.50;52.40;;;;;;5057362;28;20064;-36
2021/08/05 08:34:39;;;;;;;9.65;5.80;;;28.60;52.80;;;;;;5057502;28;20029;-38
2021/08/05 08:37:05;;;;;;;8.85;5.88;;;28.60;52.40;;;;;;5057247;28;20036;-35
2021/08/05 08:39:30;;;;;;;8.07;5.90;;;28.70;52.50;;;;;;5057112;28;20017;-34
2021/08/05 08:41:56;;;;;;;8.15;6.13;;;28.70;52.20;;;;;;5057091;28;20104;-35
2021/08/05 08:44:22;;;;;;;10.77;6.00;;;28.70;51.90;;;;;;5057041;28;20032;-42
2021/08/05 08:46:48;;;;;;;8.88;5.10;;;28.80;51.70;;;;;;5057412;28;20033;-35
2021/08/05 08:49:15;;;;;;;7.50;4.88;;;28.80;51.60;;;;;;5056898;28;20025;-42
2021/08/05 08:51:44;;;;;;;9.82;4.95;;;28.80;51.50;;;;;;5056126;28;20068;-42
2021/08/05 08:54:10;;;;;;;7.90;4.50;;;28.80;51.30;;;;;;5057471;28;20029;-41
2021/08/05 08:56:41;;;;;;;12.73;7.50;;;28.80;51.40;;;;;;5055629;28;20290;-43
2021/08/05 08:59:07;;;;;;;6.93;4.50;;;28.80;51.50;;;;;;5056847;28;20370;-34
2021/08/05 09:01:39;;;;;;;8.60;4.50;;;28.80;50.50;;;;;;5054199;28;20056;-43
2021/08/05 09:04:08;;;;;;;5.43;4.13;;;28.80;49.50;;;;;;5056732;28;20115;-44
2021/08/05 09:06:35;;;;;;;15.43;6.45;;;28.80;49.40;;;;;;5052973;28;20032;-43
2021/08/05 09:09:01;;;;;;;7.82;4.70;;;28.90;49.10;;;;;;5056554;28;20364;-35
2021/08/05 09:11:27;;;;;;;5.47;4.30;;;28.90;48.70;;;;;;5055992;28;20029;-34
2021/08/05 09:13:52;;;;;;;6.82;4.10;;;29.00;49.20;;;;;;5056356;28;20327;-36
2021/08/05 09:16:23;;;;;;;8.60;4.10;;;29.00;49.70;;;;;;5054339;28;20045;-43
2021/08/05 09:18:49;;;;;;;10.02;4.20;;;29.00;50.00;;;;;;5056465;28;20062;-34
2021/08/05 09:21:23;;;;;;;9.20;6.50;;;29.10;49.60;;;;;;5055761;28;20029;-34
2021/08/05 09:24:06;;;;;;;14.82;7.72;;;29.20;49.10;;;;;;5056189;28;20107;-44
2021/08/05 09:26:43;;;;;;;9.60;5.53;;;29.20;49.40;;;;;;5055942;28;20082;-34
2021/08/05 09:29:10;;;;;;;8.60;4.85;;;29.30;49.20;;;;;;5056295;28;20029;-34
2021/08/05 09:31:39;;;;;;;5.68;4.22;;;29.30;48.80;;;;;;5055848;28;20048;-36
2021/08/05 09:34:23;;;;;;;4.90;3.85;;;29.40;49.10;;;;;;5055932;28;20455;-43
2021/08/05 09:36:58;;;;;;;6.65;4.43;;;29.40;48.50;;;;;;5055290;28;20128;-34
2021/08/05 09:39:25;;;;;;;10.02;6.20;;;29.50;47.50;;;;;;5055170;28;20409;-43
2021/08/05 09:41:56;;;;;;;8.35;3.85;;;29.50;47.90;;;;;;5055858;28;20158;-43
2021/08/05 09:44:22;;;;;;;7.78;3.95;;;29.50;46.20;;;;;;5054788;28;20021;-34
2021/08/05 09:47:07;;;;;;;10.43;4.15;;;29.60;46.30;;;;;;5055902;28;20033;-35
2021/08/05 09:49:40;;;;;;;6.82;4.40;;;29.60;46.20;;;;;;5056162;28;20372;-34
2021/08/05 09:52:09;;;;;;;15.77;4.53;;;29.70;46.10;;;;;;5056081;28;20108;-43
2021/08/05 09:54:51;;;;;;;8.98;4.00;;;29.70;44.90;;;;;;5055896;28;20032;-35
2021/08/05 09:57:28;;;;;;;7.07;4.15;;;29.80;44.70;;;;;;5055777;28;20036;-43
2021/08/05 09:59:55;;;;;;;4.43;3.80;;;29.80;44.60;;;;;;5056128;28;20021;-44
2021/08/05 10:02:22;;;;;;;8.43;6.68;;;29.90;45.10;;;;;;5055294;28;20033;-34
2021/08/05 10:04:48;;;;;;;5.53;4.13;;;29.80;44.80;;;;;;5055644;28;20052;-44
2021/08/05 10:07:15;;;;;;;6.50;3.58;;;29.90;45.10;;;;;;5055704;28;20033;-43
2021/08/05 10:09:41;;;;;;;9.45;3.85;;;29.90;44.90;;;;;;5055020;28;20029;-34
2021/08/05 10:12:33;;;;;;;12.35;8.07;;;29.90;45.20;;;;;;5055617;28;20032;-34
2021/08/05 10:15:09;;;;;;;12.13;4.22;;;30.00;45.50;;;;;;5055730;28;20110;-34
2021/08/05 10:17:36;;;;;;;8.13;3.80;;;30.00;45.50;;;;;;5055438;28;20035;-44
2021/08/05 10:20:04;;;;;;;5.60;3.50;;;30.10;45.70;;;;;;5055656;28;20095;-34
2021/08/05 10:22:31;;;;;;;5.72;3.33;;;30.10;45.30;;;;;;5055604;28;20056;-45
2021/08/05 10:24:58;;;;;;;6.35;3.78;;;30.20;45.30;;;;;;5055400;28;20435;-44
2021/08/05 10:27:25;;;;;;;5.35;3.42;;;30.30;45.20;;;;;;5052374;28;20061;-43
2021/08/05 10:29:51;;;;;;;6.38;3.88;;;30.30;44.30;;;;;;5055610;28;20029;-45
2021/08/05 10:32:19;;;;;;;9.10;4.18;;;30.30;44.40;;;;;;5054897;28;20037;-43
2021/08/05 10:34:45;;;;;;;6.57;4.07;;;30.30;44.60;;;;;;5055008;28;20139;-34
2021/08/05 10:37:13;;;;;;;9.77;4.03;;;30.30;44.60;;;;;;5054900;28;20033;-34
2021/08/05 10:39:43;;;;;;;9.02;4.20;;;30.40;45.00;;;;;;5055077;28;20401;-34
2021/08/05 10:42:10;;;;;;;;;;;30.40;44.80;;;;;;5055337;28;20072;-43
2021/08/05 10:44:38;;;;;;;4.50;3.90;;;30.50;44.90;;;;;;5050573;28;20003;-45
2021/08/05 10:47:07;;;;;;;10.13;3.90;;;30.50;44.00;;;;;;5054546;28;20037;-34
2021/08/05 10:49:33;;;;;;;7.28;3.70;;;30.60;43.60;;;;;;5055079;28;20052;-43
2021/08/05 10:51:59;;;;;;;5.97;3.67;;;30.70;43.60;;;;;;5054844;28;20033;-44
2021/08/05 10:54:47;;;;;;;5.75;3.35;;;30.70;43.10;;;;;;5054739;28;20331;-41
2021/08/05 10:57:22;;;;;;;10.27;4.00;;;30.80;42.10;;;;;;5054599;28;20037;-35
2021/08/05 11:00:08;;;;;;;11.93;4.40;;;30.90;42.50;;;;;;5054715;28;20056;-40
2021/08/05 11:02:54;;;;;;;5.63;3.95;;;30.90;42.10;;;;;;5054586;28;20104;-34
2021/08/05 11:05:23;;;;;;;11.55;4.30;;;31.00;42.40;;;;;;5054705;28;20025;-42
2021/08/05 11:08:12;;;;;;;5.50;4.07;;;31.00;42.60;;;;;;5054614;28;20037;-33
2021/08/05 11:10:37;;;;;;;9.52;3.42;;;31.10;42.80;;;;;;5054935;28;20032;-42
2021/08/05 11:13:09;;;;;;;4.78;3.78;;;31.20;42.60;;;;;;5054268;28;20037;-34
2021/08/05 11:15:35;;;;;;;6.28;3.67;;;31.20;42.50;;;;;;5054374;28;20132;-42
2021/08/05 11:18:15;;;;;;;16.33;4.40;;;31.30;42.50;;;;;;5054182;28;20123;-43
2021/08/05 11:20:51;;;;;;;4.53;3.63;;;31.40;42.60;;;;;;5054650;28;20029;-33
2021/08/05 11:23:30;;;;;;;6.97;4.20;;;31.50;42.50;;;;;;5053951;28;20029;-42
2021/08/05 11:25:55;;;;;;;5.73;3.80;;;31.60;42.00;;;;;;5055001;28;20068;-42
2021/08/05 11:28:32;;;;;;;6.05;4.18;;;31.70;42.50;;;;;;5054188;28;20033;-42
2021/08/05 11:31:02;;;;;;;11.27;4.55;;;31.80;42.30;;;;;;5054886;28;20083;-34
2021/08/05 11:33:36;;;;;;;7.75;4.07;;;31.80;41.80;;;;;;5054437;28;20029;-34
2021/08/05 11:36:14;;;;;;;11.70;4.75;;;31.90;42.00;;;;;;5053826;28;20428;-42
2021/08/05 11:39:00;;;;;;;8.70;4.25;;;31.90;42.50;;;;;;5054907;28;20025;-34
2021/08/05 11:41:41;;;;;;;11.02;5.15;;;32.00;42.70;;;;;;5057920;28;20036;-35
2021/08/05 11:44:39;;;;;;;11.05;5.65;;;32.00;43.00;;;;;;5058569;28;20040;-34
2021/08/05 11:47:05;;;;;;;9.77;5.82;;;32.20;43.20;;;;;;5054874;28;20045;-34
2021/08/05 11:49:33;;;;;;;9.07;5.03;;;32.20;43.30;;;;;;5053586;28;20032;-35
2021/08/05 11:52:06;;;;;;;9.02;5.68;;;32.40;43.10;;;;;;5058130;28;20108;-44
2021/08/05 11:54:32;;;;;;;11.68;5.88;;;32.50;42.90;;;;;;5057930;28;20240;-44
2021/08/05 11:57:03;;;;;;;8.00;5.93;;;32.60;42.90;;;;;;5057579;28;20037;-34
2021/08/05 11:59:43;;;;;;;7.50;4.90;;;32.60;42.80;;;;;;5057847;28;20035;-43
2021/08/05 12:02:10;;;;;;;;;;;32.70;42.50;;;;;;5057784;28;20032;-42
2021/08/05 12:04:36;;;;;;;8.75;5.13;;;32.70;42.40;;;;;;5057428;28;19988;-33
2021/08/05 12:07:14;;;;;;;12.25;4.80;;;32.60;42.10;;;;;;5057335;28;20133;-42
2021/08/05 12:09:40;;;;;;;10.88;5.50;;;32.60;42.40;;;;;;5057326;28;20036;-42
2021/08/05 12:12:06;;;;;;;8.82;5.40;;;32.50;42.40;;;;;;5057125;28;20044;-33
2021/08/05 12:14:32;;;;;;;7.63;5.03;;;32.40;42.80;;;;;;5057097;28;20033;-33
2021/08/05 12:16:58;;;;;;;7.97;4.75;;;32.40;43.10;;;;;;5056951;28;20029;-42
2021/08/05 12:19:23;;;;;;;10.30;5.25;;;32.30;43.30;;;;;;5057403;28;20025;-33
2021/08/05 12:21:49;;;;;;;10.15;5.10;;;32.30;43.40;;;;;;5057194;28;20033;-42
2021/08/05 12:24:15;;;;;;;5.18;4.18;;;32.30;43.60;;;;;;5056949;28;20032;-33
2021/08/05 12:26:41;;;;;;;6.05;4.43;;;32.30;43.00;;;;;;5057859;28;20044;-34
2021/08/05 12:29:10;;;;;;;13.88;4.35;;;32.30;42.90;;;;;;5057269;28;20075;-41
2021/08/05 12:31:36;;;;;;;7.30;4.10;;;32.30;43.10;;;;;;5057374;28;20033;-42
2021/08/05 12:34:02;;;;;;;7.47;4.07;;;32.30;43.10;;;;;;5057193;28;20045;-34
2021/08/05 12:36:28;;;;;;;10.10;5.18;;;32.50;43.30;;;;;;5057376;28;20033;-42
2021/08/05 12:39:08;;;;;;;24.90;5.07;;;32.50;43.00;;;;;;5057162;28;20063;-42
2021/08/05 12:41:40;;;;;;;9.15;5.90;;;32.60;43.00;;;;;;5057389;28;20033;-42
2021/08/05 12:44:11;;;;;;;5.93;4.28;;;32.70;42.80;;;;;;5056400;28;20071;-34
2021/08/05 12:46:38;;;;;;;8.73;4.35;;;32.70;42.40;;;;;;5057025;28;20321;-34
2021/08/05 12:49:04;;;;;;;6.85;4.22;;;32.70;42.30;;;;;;5056613;28;20475;-46